• Join FlightAware (Why Join?)
  • Login
  • US Flag 
02:56PM EDT


 

Airport Tracker/Info


-or-


 

Live Flight TrackerFlight Track Log ✈ UAL1259 ✈ 25-Apr-2013 ✈ KBWI - KORD

Flight Track Log - Related Links

Times and Time Zones

All times are in EDT time to prevent confusion due to time zone crossing. See the UAL1259 flight status page for this flight to view local times or setup timezone preferences in your user account.

Time Position Orientation Groundspeed Altitude Reporting Facility
EDT Latitude Longitude Course Direction KTS MPH feet Rate Location/Type
09:53AM 39.1830 -76.8220 275° West 224 258 4,800  Level FlightAware
09:53AM 39.1870 -76.8590 278° West 251 289 5,600 2,820 Climbing FlightAware
09:54AM 39.1910 -76.9080 276° West 261 300 7,400 3,480 Climbing FlightAware
09:54AM 39.1960 -76.9600 277° West 262 302 9,100 3,420 Climbing FlightAware
09:54AM 39.1980 -76.9810 277° West 258 297 10,000 2,040 Climbing FlightAware
09:55AM 39.2040 -77.0500 276° West 300 345 11,000 2,160 Climbing FlightAware
09:56AM 39.2090 -77.1120 276° West 302 348 12,700 3,360 Climbing FlightAware
09:56AM 39.2030 -77.1480 258° West 293 337 14,100 3,720 Climbing FlightAware
09:56AM 39.1920 -77.1700 237° Southwest 296 341 14,900 3,180 Climbing FlightAware
09:56AM 39.1780 -77.1850 220° Southwest 297 342 15,700 3,000 Climbing FlightAware
09:57AM 39.1380 -77.2190 213° Southwest 295 339 17,400 2,460 Climbing FlightAware
09:58AM 39.0840 -77.2650 213° Southwest 309 356 19,000 1,860 Climbing FlightAware
09:59AM 39.0280 -77.3130 214° Southwest 332 382 20,200 1,680 Climbing FlightAware
09:59AM 39.0020 -77.3510 229° Southwest 325 374 21,100 2,100 Climbing FlightAware
10:00AM 38.9870 -77.4310 256° West 329 379 22,700 2,220 Climbing FlightAware
10:00AM 38.9730 -77.5080 257° West 327 376 24,100 1,740 Climbing FlightAware
10:01AM 38.9580 -77.5940 257° West 334 384 25,200 1,440 Climbing FlightAware
10:02AM 38.9450 -77.6710 258° West 338 389 26,200 1,500 Climbing FlightAware
10:03AM 38.9450 -77.7630 270° West 347 399 27,400 1,260 Climbing FlightAware
10:03AM 38.9480 -77.8450 273° West 355 409 28,000 420 Climbing FlightAware
10:04AM 38.9510 -77.9250 273° West 365 420 28,000  Level FlightAware
10:05AM 38.9550 -78.0300 273° West 365 420 28,000  Level FlightAware
10:05AM 38.9570 -78.1190 272° West 364 419 28,000  Level FlightAware
10:06AM 38.9610 -78.2150 273° West 365 420 28,000  Level FlightAware
10:07AM 38.9630 -78.3030 272° West 364 419 28,000  Level FlightAware
10:07AM 38.9660 -78.3870 273° West 364 419 28,000  Level FlightAware
10:08AM 38.9690 -78.4860 272° West 365 420 28,000  Level FlightAware
10:09AM 38.9720 -78.5730 273° West 366 421 28,000  Level FlightAware
10:09AM 38.9740 -78.6580 272° West 367 422 28,000  Level FlightAware
10:10AM 38.9760 -78.7510 272° West 368 423 28,000  Level FlightAware
10:11AM 38.9790 -78.8440 272° West 369 425 28,000  Level FlightAware
10:12AM 38.9810 -78.9380 272° West 371 427 28,000  Level FlightAware
10:12AM 38.9830 -79.0280 272° West 373 429 28,000  Level FlightAware
10:13AM 38.9860 -79.1340 272° West 378 435 28,000  Level FlightAware
10:14AM 38.9880 -79.2220 272° West 380 437 28,000  Level FlightAware
10:14AM 38.9900 -79.3120 272° West 382 440 28,000  Level FlightAware
10:15AM 38.9920 -79.4130 271° West 385 443 28,000  Level FlightAware
10:16AM 38.9940 -79.5070 272° West 387 445 28,000  Level FlightAware
10:17AM 38.9960 -79.6080 271° West 391 450 28,000  Level FlightAware
10:17AM 38.9980 -79.7040 272° West 393 452 28,000  Level FlightAware
10:18AM 39.0000 -79.7950 272° West 394 453 28,000  Level FlightAware
10:19AM 39.0020 -79.8990 271° West 391 450 28,000  Level FlightAware
10:19AM 39.0030 -79.9950 271° West 387 445 28,000  Level FlightAware
10:20AM 39.0050 -80.1140 271° West 387 445 28,000  Level FlightAware
10:21AM 39.0060 -80.1920 271° West 387 445 28,000  Level FlightAware
10:22AM 39.0070 -80.2700 271° West 387 445 28,000  Level FlightAware
10:22AM 39.0080 -80.3680 271° West 387 445 28,000  Level FlightAware
10:23AM 39.0090 -80.4470 271° West 387 445 28,000  Level FlightAware
10:24AM 39.0110 -80.5250 272° West 387 445 28,000  Level FlightAware
10:26AM 39.2120 -80.8520 308° West 410 472 28,000  Level FlightAware
10:26AM 39.2400 -80.9170 299° West 410 472 28,000  Level FlightAware
10:27AM 39.2790 -81.0060 300° West 410 472 28,000  Level FlightAware
10:28AM 39.3260 -81.1130 300° West 410 472 28,000  Level FlightAware
10:29AM 39.3680 -81.2120 299° West 408 470 28,000  Level FlightAware
10:29AM 39.4110 -81.3110 299° West 409 471 28,000  Level FlightAware
10:30AM 39.4470 -81.3940 299° West 408 470 28,000  Level FlightAware
10:31AM 39.4850 -81.4820 299° West 407 468 28,000  Level FlightAware
10:31AM 39.5230 -81.5730 298° West 406 467 28,000  Level FlightAware
10:32AM 39.5610 -81.6600 300° West 405 466 28,000  Level FlightAware
10:33AM 39.6010 -81.7550 299° West 405 466 28,000  Level FlightAware
10:34AM 39.6370 -81.8390 299° West 405 466 28,000  Level FlightAware
10:34AM 39.6730 -81.9250 299° West 405 466 28,000  Level FlightAware
10:35AM 39.7150 -82.0240 299° West 405 466 28,000  Level FlightAware
10:36AM 39.7500 -82.1070 299° West 404 465 28,000  Level FlightAware
10:36AM 39.7860 -82.1940 298° West 404 465 28,000  Level FlightAware
10:37AM 39.8250 -82.2880 298° West 403 464 28,000  Level FlightAware
10:38AM 39.8620 -82.3770 298° West 404 465 28,000  Level FlightAware
10:38AM 39.9010 -82.4710 298° West 404 465 28,000  Level FlightAware
10:39AM 39.9370 -82.5570 299° West 403 464 28,000  Level FlightAware
10:40AM 39.9720 -82.6410 299° West 403 464 28,000  Level FlightAware
10:41AM 40.0120 -82.7390 298° West 402 463 28,000  Level FlightAware
10:41AM 40.0460 -82.8220 298° West 404 465 28,000  Level FlightAware
10:42AM 40.0850 -82.9170 298° West 404 465 28,000  Level FlightAware
10:43AM 40.1140 -82.9890 298° West 404 465 28,000  Level FlightAware
10:43AM 40.1560 -83.0910 298° West 405 466 28,000  Level FlightAware
10:44AM 40.1960 -83.1890 298° West 404 465 28,000  Level FlightAware
10:45AM 40.2310 -83.2770 298° West 404 465 28,000  Level FlightAware
10:45AM 40.2700 -83.3720 298° West 404 465 28,000  Level FlightAware
10:46AM 40.3060 -83.4610 298° West 404 465 28,000  Level FlightAware
10:47AM 40.3410 -83.5480 298° West 401 461 28,000  Level FlightAware
10:48AM 40.3790 -83.6440 297° West 400 460 28,000  Level FlightAware
10:48AM 40.4120 -83.7280 297° West 398 458 28,000  Level FlightAware
10:49AM 40.4520 -83.8270 298° West 395 455 28,000  Level FlightAware
10:50AM 40.4850 -83.9110 297° West 395 455 28,000  Level FlightAware
10:50AM 40.5170 -83.9930 297° West 394 453 28,000  Level FlightAware
10:51AM 40.5560 -84.0900 298° West 396 456 28,000  Level FlightAware
10:52AM 40.5890 -84.1760 297° West 395 455 28,000  Level FlightAware
10:52AM 40.6260 -84.2710 297° West 396 456 28,000  Level FlightAware
10:53AM 40.6610 -84.3600 297° West 396 456 28,000  Level FlightAware
10:54AM 40.6940 -84.4460 297° West 397 457 28,000  Level FlightAware
10:55AM 40.7320 -84.5420 298° West 398 458 28,000  Level FlightAware
10:55AM 40.7650 -84.6280 297° West 399 459 28,000  Level FlightAware
10:56AM 40.8030 -84.7260 297° West 398 458 28,000  Level FlightAware
10:57AM 40.8360 -84.8140 296° West 397 457 28,000  Level FlightAware
10:57AM 40.8640 -84.8890 296° West 388 447 28,000  Level FlightAware
10:58AM 40.9020 -84.9900 296° West 383 441 28,000  Level FlightAware
10:59AM 40.9330 -85.0750 296° West 382 440 28,000  Level FlightAware
11:00AM 40.9770 -85.1930 296° West 382 440 28,000  Level FlightAware
11:00AM 41.0070 -85.2760 296° West 381 438 28,000  Level FlightAware
11:01AM 41.0410 -85.3690 296° West 380 437 28,000  Level FlightAware
11:02AM 41.0710 -85.4480 297° West 378 435 28,000  Level FlightAware
11:02AM 41.1070 -85.5470 296° West 375 432 28,000  Level FlightAware
11:03AM 41.1360 -85.6280 295° West 373 429 28,000 -120 Level FlightAware
11:04AM 41.1700 -85.7200 296° West 372 428 27,900 -540 Descending FlightAware
11:05AM 41.1990 -85.8020 295° West 372 428 27,300 -900 Descending FlightAware
11:05AM 41.2280 -85.8830 295° West 366 421 26,700 -1,020 Descending FlightAware
11:06AM 41.2620 -85.9750 296° West 360 414 25,900 -1,320 Descending FlightAware
11:07AM 41.2840 -86.0510 291° West 354 407 24,900 -1,980 Descending FlightAware
11:07AM 41.2980 -86.1530 280° West 345 397 23,100 -2,340 Descending FlightAware
11:08AM 41.3070 -86.2330 279° West 336 387 21,600 -2,400 Descending FlightAware
11:09AM 41.3200 -86.3130 282° West 334 384 19,900 -2,280 Descending FlightAware
11:09AM 41.3560 -86.3930 301° West 324 373 18,400 -1,980 Descending FlightAware
11:10AM 41.3870 -86.4600 302° West 320 368 17,100 -1,920 Descending FlightAware
11:11AM 41.4180 -86.5250 302° West 314 361 15,900 -1,920 Descending FlightAware
11:12AM 41.4540 -86.6040 301° West 308 354 14,300 -1,980 Descending FlightAware
11:12AM 41.4850 -86.6710 302° West 303 349 13,000 -1,920 Descending FlightAware
11:13AM 41.5120 -86.7160 309° West 309 356 12,100 -1,680 Descending FlightAware
11:13AM 41.5250 -86.7240 335° Northwest 316 364 11,900 -360 Descending FlightAware
11:14AM 41.5840 -86.7550 339° North 312 359 11,800 -120 Descending FlightAware
11:14AM 41.6380 -86.7840 338° Northwest 313 360 11,800  Level FlightAware
11:15AM 41.7050 -86.8000 350° North 322 371 11,800  Level FlightAware
11:16AM 41.7640 -86.8070 355° North 323 372 11,800 -180 Level FlightAware
11:16AM 41.8220 -86.8190 351° North 320 368 11,600 -1,200 Descending FlightAware
11:17AM 41.8660 -86.8350 345° North 319 367 10,400 -1,320 Descending FlightAware
11:18AM 41.9090 -86.8780 323° Northwest 281 323 10,100 -600 Descending FlightAware
11:18AM 41.9380 -86.9110 320° Northwest 262 302 9,700 -1,140 Descending FlightAware
11:19AM 41.9640 -86.9410 319° Northwest 259 298 9,000 -1,380 Descending FlightAware
11:19AM 41.9710 -86.9560 302° West 258 297 8,800 -480 Descending FlightAware
11:19AM 41.9760 -86.9770 288° West 256 295 8,800  Level FlightAware
11:20AM 41.9820 -87.0210 280° West 257 296 8,800  Level FlightAware
11:20AM 41.9820 -87.0640 270° West 258 297 8,800 -480 Level FlightAware
11:20AM 41.9820 -87.0880 270° West 259 298 8,500 -1,380 Descending FlightAware
11:21AM 41.9820 -87.1330 270° West 259 298 7,800 -1,080 Descending FlightAware
11:21AM 41.9820 -87.1530 270° West 257 296 7,800  Level FlightAware
11:21AM 41.9830 -87.2020 272° West 256 295 7,800  Level FlightAware
11:22AM 41.9830 -87.2490 270° West 255 293 7,800  Level FlightAware
11:22AM 41.9830 -87.2860 270° West 255 293 7,800  Level FlightAware
11:23AM 41.9830 -87.3350 270° West 257 296 7,800  Level FlightAware
11:23AM 41.9820 -87.3730 268° West 235 270 7,800  Level FlightAware
11:23AM 41.9820 -87.3920 270° West 222 255 7,800 -300 Level FlightAware
11:24AM 41.9830 -87.4340 272° West 219 252 7,600 -840 Descending FlightAware
11:24AM 41.9830 -87.4540 270° West 221 254 7,200 -1,680 Descending FlightAware
11:25AM 41.9830 -87.4890 270° West 211 243 6,500 -1,200 Descending FlightAware
11:25AM 41.9830 -87.5300 270° West 211 243 6,100 -1,140 Descending FlightAware
11:26AM 41.9830 -87.5610 270° West 210 242 5,500 -1,200 Descending FlightAware
11:26AM 41.9830 -87.5950 270° West 206 237 5,000 -1,320 Descending FlightAware
11:26AM 41.9840 -87.6330 272° West 203 234 4,300 -1,320 Descending FlightAware
11:27AM 41.9840 -87.6680 270° West 184 212 3,800 -1,020 Descending FlightAware
11:27AM 41.9840 -87.6980 270° West 170 196 3,300 -1,020 Descending FlightAware
11:28AM 41.9840 -87.7260 270° West 167 192 2,900 -900 Descending FlightAware
11:28AM 41.9840 -87.7550 270° West 161 185 2,500 -1,020 Descending FlightAware
11:29AM 41.9840 -87.7820 270° West 159 183 2,000 -1,020 Descending FlightAware
11:29AM 41.9840 -87.8090 270° West 142 163 1,600 -720 Descending FlightAware
11:30AM 41.9840 -87.8340 270° West 137 158 1,300 -840 Descending FlightAware
11:30AM 41.9840 -87.8490 270° West 147 169 1,000 -900 Descending FlightAware
11:30AM 41.9840 -87.8710 270° West 144 166 700 -720 Descending FlightAware
11:31AM 41.9840 -87.8920 270° West 137 158 400 -720 Descending FlightAware